Aeroporto :
LOGIN :

Iscrizione | Disclaimer

   EN    FR    IT 

 










Sommario :    VFR   VFR Marginale   IFR   IFR Intensivo   IFR Molto Intensivo
Visibilità : 
Base nubi : 
>= 8 km
>= 3000ft
5 / 8 km
1000 / 3000 ft
1500m / 5 km
500 / 1000 ft
800 / 1500m
200 / 500 ft
< 800m
< 200 ft
Simboli :   Temporali  Nebbia  Neve Forte  Precipitazioni Forti  Vento > 20 kt
SIGMETs :   Varie  Temporali  Ghiacco  Turbolenza  Onda orograficha  Ceneri Vulcaniche






- Altitudine del aeroporto : 29 ft


LIRM - Grazzanise Caserta

ULTIMO METAR :
  • 061755Z 05002KT 9999 FEW020 SCT080 14/13 Q1021 RMK BKN VIS MIN 9999 WIND THR06 03002KT BLU

METARs OBSOLETI :
  • 061655Z 04002KT 9999 FEW020 14/13 Q1021
  • 061555Z 01002KT 9999 FEW025 15/13 Q1021 RMK BKN BKN200 VIS MIN 9999 WIND THR06 34002KT BLU

TAF TAF LIRM
Valido dal 06 a 18 ore il 07 a 03 ore UTC


061700Z 0618/0703 VRB05KT 9999 SCT020 SCT070



MetMap, La meteo Aeronautica in un colpo d'occhio ! - Copyright ORBIFLY Dicembre 2007 - Disclaimer

ORBIFLY MET'MAP TEAM :

Programmazione e sviluppo : Alexandra Zaïnal
Concezione : Baudouin d'Aumeries
Aiuto per la programmazione : Marc-Olivier Méhu
Supporto tecnico e logistico : Manuel Goepfert
Aiuto per la traduzione : Arnaldo La Scala

Contatto : metmap@orbifly.com




FONTI E CREDITI :

   NOAA